sensor_id;sensor_type;location;lat;lon;timestamp;P1;durP1;ratioP1;P2;durP2;ratioP2
78744;SDS011;68064;53.100;8.824;2023-05-15T00:00:30;5.32;;;1.20;;
78744;SDS011;68064;53.100;8.824;2023-05-15T00:01:31;6.18;;;1.10;;
78744;SDS011;68064;53.100;8.824;2023-05-15T00:02:32;5.25;;;1.02;;
78744;SDS011;68064;53.100;8.824;2023-05-15T00:03:33;5.18;;;0.90;;
78744;SDS011;68064;53.100;8.824;2023-05-15T00:04:34;6.55;;;1.55;;
78744;SDS011;68064;53.100;8.824;2023-05-15T00:05:37;5.20;;;1.30;;
78744;SDS011;68064;53.100;8.824;2023-05-15T00:06:38;5.72;;;1.08;;
78744;SDS011;68064;53.100;8.824;2023-05-15T00:07:39;6.63;;;1.42;;
78744;SDS011;68064;53.100;8.824;2023-05-15T00:08:40;5.32;;;1.33;;
78744;SDS011;68064;53.100;8.824;2023-05-15T00:09:42;5.88;;;1.23;;
78744;SDS011;68064;53.100;8.824;2023-05-15T00:10:43;7.45;;;1.52;;
78744;SDS011;68064;53.100;8.824;2023-05-15T00:11:44;6.07;;;1.63;;
78744;SDS011;68064;53.100;8.824;2023-05-15T00:12:45;5.60;;;1.27;;
78744;SDS011;68064;53.100;8.824;2023-05-15T00:13:46;6.78;;;1.73;;
78744;SDS011;68064;53.100;8.824;2023-05-15T00:14:47;5.75;;;1.35;;
78744;SDS011;68064;53.100;8.824;2023-05-15T00:15:48;5.72;;;1.58;;
78744;SDS011;68064;53.100;8.824;2023-05-15T00:16:49;6.88;;;1.45;;
78744;SDS011;68064;53.100;8.824;2023-05-15T00:17:50;6.45;;;1.63;;
78744;SDS011;68064;53.100;8.824;2023-05-15T00:18:51;8.00;;;1.65;;
78744;SDS011;68064;53.100;8.824;2023-05-15T00:19:52;5.80;;;1.42;;
78744;SDS011;68064;53.100;8.824;2023-05-15T00:20:55;5.20;;;1.15;;
78744;SDS011;68064;53.100;8.824;2023-05-15T00:21:56;7.07;;;1.40;;
78744;SDS011;68064;53.100;8.824;2023-05-15T00:22:57;6.13;;;1.42;;
78744;SDS011;68064;53.100;8.824;2023-05-15T00:23:58;6.05;;;1.50;;
78744;SDS011;68064;53.100;8.824;2023-05-15T00:24:59;6.03;;;1.27;;
78744;SDS011;68064;53.100;8.824;2023-05-15T00:26:00;6.13;;;1.67;;
78744;SDS011;68064;53.100;8.824;2023-05-15T00:27:02;5.00;;;1.23;;
78744;SDS011;68064;53.100;8.824;2023-05-15T00:29:04;6.05;;;1.55;;
78744;SDS011;68064;53.100;8.824;2023-05-15T00:30:05;6.88;;;1.80;;
78744;SDS011;68064;53.100;8.824;2023-05-15T00:31:07;5.50;;;1.30;;
78744;SDS011;68064;53.100;8.824;2023-05-15T00:32:08;5.90;;;1.70;;
78744;SDS011;68064;53.100;8.824;2023-05-15T00:33:09;6.18;;;1.77;;
78744;SDS011;68064;53.100;8.824;2023-05-15T00:34:10;6.25;;;1.60;;
78744;SDS011;68064;53.100;8.824;2023-05-15T00:35:11;9.43;;;1.60;;
78744;SDS011;68064;53.100;8.824;2023-05-15T00:36:14;6.85;;;1.70;;
78744;SDS011;68064;53.100;8.824;2023-05-15T00:37:15;6.07;;;1.30;;
78744;SDS011;68064;53.100;8.824;2023-05-15T00:38:16;6.50;;;1.75;;
78744;SDS011;68064;53.100;8.824;2023-05-15T00:39:17;5.75;;;1.67;;
78744;SDS011;68064;53.100;8.824;2023-05-15T00:40:19;7.60;;;1.90;;
78744;SDS011;68064;53.100;8.824;2023-05-15T00:41:21;6.57;;;1.98;;
78744;SDS011;68064;53.100;8.824;2023-05-15T00:42:23;6.72;;;1.65;;
78744;SDS011;68064;53.100;8.824;2023-05-15T00:43:25;6.30;;;1.45;;
78744;SDS011;68064;53.100;8.824;2023-05-15T00:44:28;6.68;;;1.95;;
78744;SDS011;68064;53.100;8.824;2023-05-15T00:45:31;5.65;;;1.33;;
78744;SDS011;68064;53.100;8.824;2023-05-15T00:46:33;6.93;;;1.40;;
78744;SDS011;68064;53.100;8.824;2023-05-15T00:47:35;5.47;;;1.20;;
78744;SDS011;68064;53.100;8.824;2023-05-15T00:48:39;6.45;;;1.58;;
78744;SDS011;68064;53.100;8.824;2023-05-15T00:49:43;5.47;;;1.40;;
78744;SDS011;68064;53.100;8.824;2023-05-15T00:50:44;6.53;;;1.67;;
78744;SDS011;68064;53.100;8.824;2023-05-15T00:51:47;6.07;;;1.58;;
78744;SDS011;68064;53.100;8.824;2023-05-15T00:52:48;6.38;;;1.45;;
78744;SDS011;68064;53.100;8.824;2023-05-15T00:53:50;6.85;;;1.55;;
78744;SDS011;68064;53.100;8.824;2023-05-15T00:55:52;7.32;;;1.63;;
78744;SDS011;68064;53.100;8.824;2023-05-15T00:56:56;6.70;;;1.77;;
78744;SDS011;68064;53.100;8.824;2023-05-15T00:57:58;6.93;;;1.90;;
78744;SDS011;68064;53.100;8.824;2023-05-15T00:59:01;6.30;;;1.48;;
78744;SDS011;68064;53.100;8.824;2023-05-15T01:00:03;5.85;;;1.73;;
78744;SDS011;68064;53.100;8.824;2023-05-15T01:01:06;6.22;;;1.73;;
78744;SDS011;68064;53.100;8.824;2023-05-15T01:02:07;6.95;;;1.65;;
78744;SDS011;68064;53.100;8.824;2023-05-15T01:03:08;6.18;;;1.67;;
78744;SDS011;68064;53.100;8.824;2023-05-15T01:04:09;5.78;;;1.65;;
78744;SDS011;68064;53.100;8.824;2023-05-15T01:05:11;6.18;;;1.38;;
78744;SDS011;68064;53.100;8.824;2023-05-15T01:06:12;6.85;;;1.92;;
78744;SDS011;68064;53.100;8.824;2023-05-15T01:07:15;5.88;;;1.38;;
78744;SDS011;68064;53.100;8.824;2023-05-15T01:08:18;6.22;;;1.77;;
78744;SDS011;68064;53.100;8.824;2023-05-15T01:09:22;6.30;;;1.63;;
78744;SDS011;68064;53.100;8.824;2023-05-15T01:10:24;6.50;;;1.67;;
78744;SDS011;68064;53.100;8.824;2023-05-15T01:11:26;6.40;;;1.40;;
78744;SDS011;68064;53.100;8.824;2023-05-15T01:12:28;6.72;;;1.42;;
78744;SDS011;68064;53.100;8.824;2023-05-15T01:13:31;6.65;;;1.48;;
78744;SDS011;68064;53.100;8.824;2023-05-15T01:14:32;6.55;;;1.58;;
78744;SDS011;68064;53.100;8.824;2023-05-15T01:15:33;5.70;;;1.40;;
78744;SDS011;68064;53.100;8.824;2023-05-15T01:16:35;6.22;;;1.55;;
78744;SDS011;68064;53.100;8.824;2023-05-15T01:18:37;5.70;;;1.30;;
78744;SDS011;68064;53.100;8.824;2023-05-15T01:19:38;8.15;;;1.55;;
78744;SDS011;68064;53.100;8.824;2023-05-15T01:20:44;7.07;;;1.52;;
78744;SDS011;68064;53.100;8.824;2023-05-15T01:22:03;6.22;;;1.60;;
78744;SDS011;68064;53.100;8.824;2023-05-15T01:23:30;5.45;;;1.17;;
78744;SDS011;68064;53.100;8.824;2023-05-15T01:24:55;6.75;;;1.42;;
78744;SDS011;68064;53.100;8.824;2023-05-15T01:27:55;8.13;;;2.25;;
78744;SDS011;68064;53.100;8.824;2023-05-15T01:29:03;6.30;;;1.83;;
78744;SDS011;68064;53.100;8.824;2023-05-15T01:30:08;6.32;;;1.50;;
78744;SDS011;68064;53.100;8.824;2023-05-15T01:31:13;6.55;;;1.90;;
78744;SDS011;68064;53.100;8.824;2023-05-15T01:32:17;6.60;;;1.80;;
78744;SDS011;68064;53.100;8.824;2023-05-15T01:33:21;7.32;;;2.17;;
78744;SDS011;68064;53.100;8.824;2023-05-15T01:34:27;5.45;;;1.45;;
78744;SDS011;68064;53.100;8.824;2023-05-15T01:35:34;6.40;;;1.80;;
78744;SDS011;68064;53.100;8.824;2023-05-15T01:36:41;5.72;;;0.90;;
78744;SDS011;68064;53.100;8.824;2023-05-15T01:37:48;6.60;;;2.00;;
78744;SDS011;68064;53.100;8.824;2023-05-15T01:38:55;6.35;;;1.50;;
78744;SDS011;68064;53.100;8.824;2023-05-15T01:40:01;5.80;;;1.60;;
78744;SDS011;68064;53.100;8.824;2023-05-15T01:41:05;6.50;;;1.83;;
78744;SDS011;68064;53.100;8.824;2023-05-15T01:42:12;6.47;;;1.98;;
78744;SDS011;68064;53.100;8.824;2023-05-15T01:43:19;6.20;;;1.85;;
78744;SDS011;68064;53.100;8.824;2023-05-15T01:44:25;6.72;;;2.15;;
78744;SDS011;68064;53.100;8.824;2023-05-15T01:45:28;6.25;;;1.50;;
78744;SDS011;68064;53.100;8.824;2023-05-15T01:46:31;6.65;;;2.03;;
78744;SDS011;68064;53.100;8.824;2023-05-15T01:47:38;6.72;;;2.10;;
78744;SDS011;68064;53.100;8.824;2023-05-15T01:48:43;7.43;;;1.65;;
78744;SDS011;68064;53.100;8.824;2023-05-15T01:49:46;6.90;;;1.55;;
78744;SDS011;68064;53.100;8.824;2023-05-15T01:50:50;6.95;;;2.08;;
78744;SDS011;68064;53.100;8.824;2023-05-15T01:51:58;6.93;;;1.75;;
78744;SDS011;68064;53.100;8.824;2023-05-15T01:53:04;7.47;;;1.77;;
78744;SDS011;68064;53.100;8.824;2023-05-15T01:54:08;6.25;;;1.63;;
78744;SDS011;68064;53.100;8.824;2023-05-15T01:55:10;6.40;;;1.80;;
78744;SDS011;68064;53.100;8.824;2023-05-15T01:56:14;6.50;;;1.30;;
78744;SDS011;68064;53.100;8.824;2023-05-15T01:57:16;6.22;;;1.55;;
78744;SDS011;68064;53.100;8.824;2023-05-15T01:58:20;6.55;;;1.65;;
78744;SDS011;68064;53.100;8.824;2023-05-15T01:59:24;6.25;;;1.48;;
78744;SDS011;68064;53.100;8.824;2023-05-15T02:00:27;6.80;;;1.85;;
78744;SDS011;68064;53.100;8.824;2023-05-15T02:01:28;6.15;;;1.80;;
78744;SDS011;68064;53.100;8.824;2023-05-15T02:02:32;6.40;;;2.38;;
78744;SDS011;68064;53.100;8.824;2023-05-15T02:03:33;6.95;;;2.25;;
78744;SDS011;68064;53.100;8.824;2023-05-15T02:04:36;6.65;;;1.67;;
78744;SDS011;68064;53.100;8.824;2023-05-15T02:05:38;6.18;;;1.25;;
78744;SDS011;68064;53.100;8.824;2023-05-15T02:06:40;5.68;;;1.27;;
78744;SDS011;68064;53.100;8.824;2023-05-15T02:07:41;6.50;;;1.40;;
78744;SDS011;68064;53.100;8.824;2023-05-15T02:08:44;5.75;;;1.35;;
78744;SDS011;68064;53.100;8.824;2023-05-15T02:09:47;7.15;;;1.35;;
78744;SDS011;68064;53.100;8.824;2023-05-15T02:10:50;6.38;;;1.45;;
78744;SDS011;68064;53.100;8.824;2023-05-15T02:11:52;8.27;;;2.15;;
78744;SDS011;68064;53.100;8.824;2023-05-15T02:12:55;7.72;;;2.08;;
78744;SDS011;68064;53.100;8.824;2023-05-15T02:13:57;5.72;;;1.40;;
78744;SDS011;68064;53.100;8.824;2023-05-15T02:14:59;7.30;;;1.70;;
78744;SDS011;68064;53.100;8.824;2023-05-15T02:16:03;5.40;;;1.20;;
78744;SDS011;68064;53.100;8.824;2023-05-15T02:17:04;6.63;;;1.73;;
78744;SDS011;68064;53.100;8.824;2023-05-15T02:18:05;6.03;;;1.52;;
78744;SDS011;68064;53.100;8.824;2023-05-15T02:19:06;6.13;;;1.40;;
78744;SDS011;68064;53.100;8.824;2023-05-15T02:21:09;6.85;;;1.90;;
78744;SDS011;68064;53.100;8.824;2023-05-15T02:22:10;9.38;;;1.77;;
78744;SDS011;68064;53.100;8.824;2023-05-15T02:23:11;7.05;;;2.00;;
78744;SDS011;68064;53.100;8.824;2023-05-15T02:24:12;6.75;;;1.23;;
78744;SDS011;68064;53.100;8.824;2023-05-15T02:25:13;6.53;;;1.38;;
78744;SDS011;68064;53.100;8.824;2023-05-15T02:26:22;7.28;;;1.88;;
78744;SDS011;68064;53.100;8.824;2023-05-15T02:27:32;6.90;;;1.80;;
78744;SDS011;68064;53.100;8.824;2023-05-15T02:28:40;6.80;;;1.70;;
78744;SDS011;68064;53.100;8.824;2023-05-15T02:29:53;6.85;;;1.77;;
78744;SDS011;68064;53.100;8.824;2023-05-15T02:31:04;8.20;;;2.30;;
78744;SDS011;68064;53.100;8.824;2023-05-15T02:32:13;6.32;;;1.58;;
78744;SDS011;68064;53.100;8.824;2023-05-15T02:33:23;7.43;;;2.17;;
78744;SDS011;68064;53.100;8.824;2023-05-15T02:35:36;7.43;;;2.60;;
78744;SDS011;68064;53.100;8.824;2023-05-15T02:36:41;7.07;;;1.50;;
78744;SDS011;68064;53.100;8.824;2023-05-15T02:37:47;6.22;;;1.90;;
78744;SDS011;68064;53.100;8.824;2023-05-15T02:38:51;6.35;;;1.67;;
78744;SDS011;68064;53.100;8.824;2023-05-15T02:39:53;6.07;;;1.67;;
78744;SDS011;68064;53.100;8.824;2023-05-15T02:40:55;7.72;;;1.48;;
78744;SDS011;68064;53.100;8.824;2023-05-15T02:41:59;6.68;;;1.65;;
78744;SDS011;68064;53.100;8.824;2023-05-15T02:43:01;7.05;;;1.75;;
78744;SDS011;68064;53.100;8.824;2023-05-15T02:44:04;6.25;;;1.83;;
78744;SDS011;68064;53.100;8.824;2023-05-15T02:45:08;5.85;;;1.58;;
78744;SDS011;68064;53.100;8.824;2023-05-15T02:46:10;6.20;;;1.45;;
78744;SDS011;68064;53.100;8.824;2023-05-15T02:47:12;6.28;;;1.35;;
78744;SDS011;68064;53.100;8.824;2023-05-15T02:48:14;7.30;;;1.75;;
78744;SDS011;68064;53.100;8.824;2023-05-15T02:49:17;6.40;;;1.73;;
78744;SDS011;68064;53.100;8.824;2023-05-15T02:50:19;7.38;;;2.50;;
78744;SDS011;68064;53.100;8.824;2023-05-15T02:51:20;7.07;;;2.28;;
78744;SDS011;68064;53.100;8.824;2023-05-15T02:52:21;7.68;;;2.25;;
78744;SDS011;68064;53.100;8.824;2023-05-15T02:53:23;7.53;;;2.50;;
78744;SDS011;68064;53.100;8.824;2023-05-15T02:54:24;8.05;;;2.30;;
78744;SDS011;68064;53.100;8.824;2023-05-15T02:55:25;7.45;;;1.67;;
78744;SDS011;68064;53.100;8.824;2023-05-15T02:56:26;7.32;;;2.08;;
78744;SDS011;68064;53.100;8.824;2023-05-15T02:57:27;6.78;;;1.88;;
78744;SDS011;68064;53.100;8.824;2023-05-15T02:58:28;7.70;;;2.05;;
78744;SDS011;68064;53.100;8.824;2023-05-15T02:59:29;8.25;;;1.75;;
78744;SDS011;68064;53.100;8.824;2023-05-15T03:00:32;7.07;;;2.13;;
78744;SDS011;68064;53.100;8.824;2023-05-15T03:01:33;6.68;;;2.10;;
78744;SDS011;68064;53.100;8.824;2023-05-15T03:02:34;6.50;;;1.83;;
78744;SDS011;68064;53.100;8.824;2023-05-15T03:03:35;6.53;;;2.10;;
78744;SDS011;68064;53.100;8.824;2023-05-15T03:04:36;6.15;;;1.38;;
78744;SDS011;68064;53.100;8.824;2023-05-15T03:05:37;7.60;;;2.30;;
78744;SDS011;68064;53.100;8.824;2023-05-15T03:07:39;6.13;;;1.52;;
78744;SDS011;68064;53.100;8.824;2023-05-15T03:08:40;6.70;;;1.60;;
78744;SDS011;68064;53.100;8.824;2023-05-15T03:09:41;6.25;;;1.73;;
78744;SDS011;68064;53.100;8.824;2023-05-15T03:11:43;9.95;;;2.38;;
78744;SDS011;68064;53.100;8.824;2023-05-15T03:12:44;6.40;;;1.58;;
78744;SDS011;68064;53.100;8.824;2023-05-15T03:13:45;6.97;;;1.83;;
78744;SDS011;68064;53.100;8.824;2023-05-15T03:14:46;6.50;;;2.05;;
78744;SDS011;68064;53.100;8.824;2023-05-15T03:15:49;8.52;;;2.78;;
78744;SDS011;68064;53.100;8.824;2023-05-15T03:16:50;7.95;;;2.08;;
78744;SDS011;68064;53.100;8.824;2023-05-15T03:17:51;6.95;;;2.03;;
78744;SDS011;68064;53.100;8.824;2023-05-15T03:18:52;6.38;;;1.63;;
78744;SDS011;68064;53.100;8.824;2023-05-15T03:19:53;6.25;;;1.52;;
78744;SDS011;68064;53.100;8.824;2023-05-15T03:20:54;8.13;;;2.20;;
78744;SDS011;68064;53.100;8.824;2023-05-15T03:21:55;6.00;;;1.38;;
78744;SDS011;68064;53.100;8.824;2023-05-15T03:22:56;7.07;;;1.80;;
78744;SDS011;68064;53.100;8.824;2023-05-15T03:23:57;5.78;;;1.50;;
78744;SDS011;68064;53.100;8.824;2023-05-15T03:24:58;6.60;;;1.90;;
78744;SDS011;68064;53.100;8.824;2023-05-15T03:25:59;6.68;;;1.58;;
78744;SDS011;68064;53.100;8.824;2023-05-15T03:27:00;7.75;;;2.65;;
78744;SDS011;68064;53.100;8.824;2023-05-15T03:28:01;8.23;;;2.53;;
78744;SDS011;68064;53.100;8.824;2023-05-15T03:29:02;6.53;;;2.17;;
78744;SDS011;68064;53.100;8.824;2023-05-15T03:30:04;6.88;;;1.95;;
78744;SDS011;68064;53.100;8.824;2023-05-15T03:31:07;7.10;;;2.13;;
78744;SDS011;68064;53.100;8.824;2023-05-15T03:32:08;6.32;;;1.75;;
78744;SDS011;68064;53.100;8.824;2023-05-15T03:33:09;7.28;;;2.47;;
78744;SDS011;68064;53.100;8.824;2023-05-15T03:34:11;6.85;;;1.95;;
78744;SDS011;68064;53.100;8.824;2023-05-15T03:35:12;6.40;;;1.73;;
78744;SDS011;68064;53.100;8.824;2023-05-15T03:36:13;7.28;;;2.50;;
78744;SDS011;68064;53.100;8.824;2023-05-15T03:37:14;6.90;;;2.30;;
78744;SDS011;68064;53.100;8.824;2023-05-15T03:38:15;7.30;;;1.92;;
78744;SDS011;68064;53.100;8.824;2023-05-15T03:39:16;6.55;;;1.65;;
78744;SDS011;68064;53.100;8.824;2023-05-15T03:40:17;7.07;;;2.42;;
78744;SDS011;68064;53.100;8.824;2023-05-15T03:41:18;7.75;;;1.95;;
78744;SDS011;68064;53.100;8.824;2023-05-15T03:42:20;6.80;;;1.95;;
78744;SDS011;68064;53.100;8.824;2023-05-15T03:43:22;7.18;;;2.53;;
78744;SDS011;68064;53.100;8.824;2023-05-15T03:44:23;6.70;;;1.42;;
78744;SDS011;68064;53.100;8.824;2023-05-15T03:45:24;6.68;;;2.17;;
78744;SDS011;68064;53.100;8.824;2023-05-15T03:47:28;7.28;;;2.10;;
78744;SDS011;68064;53.100;8.824;2023-05-15T03:48:29;7.93;;;2.83;;
78744;SDS011;68064;53.100;8.824;2023-05-15T03:49:30;8.13;;;2.30;;
78744;SDS011;68064;53.100;8.824;2023-05-15T03:50:31;6.63;;;1.65;;
78744;SDS011;68064;53.100;8.824;2023-05-15T03:51:33;7.88;;;2.30;;
78744;SDS011;68064;53.100;8.824;2023-05-15T03:52:34;8.23;;;2.55;;
78744;SDS011;68064;53.100;8.824;2023-05-15T03:53:35;8.32;;;2.13;;
78744;SDS011;68064;53.100;8.824;2023-05-15T03:54:36;6.55;;;1.85;;
78744;SDS011;68064;53.100;8.824;2023-05-15T03:55:37;8.10;;;1.95;;
78744;SDS011;68064;53.100;8.824;2023-05-15T03:56:38;7.20;;;2.47;;
78744;SDS011;68064;53.100;8.824;2023-05-15T03:57:39;7.63;;;2.72;;
78744;SDS011;68064;53.100;8.824;2023-05-15T03:58:41;8.40;;;2.58;;
78744;SDS011;68064;53.100;8.824;2023-05-15T03:59:42;7.85;;;2.40;;
78744;SDS011;68064;53.100;8.824;2023-05-15T04:00:43;7.25;;;2.17;;
78744;SDS011;68064;53.100;8.824;2023-05-15T04:01:45;7.70;;;2.55;;
78744;SDS011;68064;53.100;8.824;2023-05-15T04:02:47;8.20;;;2.30;;
78744;SDS011;68064;53.100;8.824;2023-05-15T04:03:48;7.55;;;2.28;;
78744;SDS011;68064;53.100;8.824;2023-05-15T04:04:49;7.60;;;2.15;;
78744;SDS011;68064;53.100;8.824;2023-05-15T04:05:50;9.00;;;2.25;;
78744;SDS011;68064;53.100;8.824;2023-05-15T04:06:51;6.82;;;1.70;;
78744;SDS011;68064;53.100;8.824;2023-05-15T04:07:52;7.95;;;2.15;;
78744;SDS011;68064;53.100;8.824;2023-05-15T04:08:53;6.18;;;1.77;;
78744;SDS011;68064;53.100;8.824;2023-05-15T04:09:54;7.90;;;2.75;;
78744;SDS011;68064;53.100;8.824;2023-05-15T04:10:55;11.60;;;5.22;;
78744;SDS011;68064;53.100;8.824;2023-05-15T04:11:56;8.93;;;2.92;;
78744;SDS011;68064;53.100;8.824;2023-05-15T04:12:57;7.82;;;2.72;;
78744;SDS011;68064;53.100;8.824;2023-05-15T04:13:58;8.68;;;2.38;;
78744;SDS011;68064;53.100;8.824;2023-05-15T04:15:12;9.25;;;3.08;;
78744;SDS011;68064;53.100;8.824;2023-05-15T04:16:14;7.82;;;2.50;;
78744;SDS011;68064;53.100;8.824;2023-05-15T04:17:16;7.82;;;2.58;;
78744;SDS011;68064;53.100;8.824;2023-05-15T04:18:17;12.88;;;5.35;;
78744;SDS011;68064;53.100;8.824;2023-05-15T04:19:18;10.52;;;4.55;;
78744;SDS011;68064;53.100;8.824;2023-05-15T04:20:20;12.20;;;5.53;;
78744;SDS011;68064;53.100;8.824;2023-05-15T04:21:22;9.90;;;3.38;;
78744;SDS011;68064;53.100;8.824;2023-05-15T04:22:23;9.43;;;3.10;;
78744;SDS011;68064;53.100;8.824;2023-05-15T04:23:24;9.10;;;3.63;;
78744;SDS011;68064;53.100;8.824;2023-05-15T04:24:25;7.47;;;2.30;;
78744;SDS011;68064;53.100;8.824;2023-05-15T04:25:26;9.35;;;2.95;;
78744;SDS011;68064;53.100;8.824;2023-05-15T04:26:27;15.15;;;7.15;;
78744;SDS011;68064;53.100;8.824;2023-05-15T04:27:29;9.57;;;3.15;;
78744;SDS011;68064;53.100;8.824;2023-05-15T04:28:30;10.18;;;4.03;;
78744;SDS011;68064;53.100;8.824;2023-05-15T04:29:31;10.07;;;3.30;;
78744;SDS011;68064;53.100;8.824;2023-05-15T04:30:32;10.15;;;4.57;;
78744;SDS011;68064;53.100;8.824;2023-05-15T04:31:33;16.40;;;7.20;;
78744;SDS011;68064;53.100;8.824;2023-05-15T04:32:36;18.63;;;8.80;;
78744;SDS011;68064;53.100;8.824;2023-05-15T04:33:37;16.92;;;8.60;;
78744;SDS011;68064;53.100;8.824;2023-05-15T04:34:38;11.25;;;4.18;;
78744;SDS011;68064;53.100;8.824;2023-05-15T04:35:39;17.00;;;7.95;;
78744;SDS011;68064;53.100;8.824;2023-05-15T04:37:42;9.80;;;4.15;;
78744;SDS011;68064;53.100;8.824;2023-05-15T04:38:43;15.63;;;7.63;;
78744;SDS011;68064;53.100;8.824;2023-05-15T04:39:44;9.82;;;4.55;;
78744;SDS011;68064;53.100;8.824;2023-05-15T04:40:45;11.82;;;5.40;;
78744;SDS011;68064;53.100;8.824;2023-05-15T04:41:46;15.43;;;7.65;;
78744;SDS011;68064;53.100;8.824;2023-05-15T04:42:47;9.88;;;3.95;;
78744;SDS011;68064;53.100;8.824;2023-05-15T04:43:48;9.90;;;4.05;;
78744;SDS011;68064;53.100;8.824;2023-05-15T04:44:49;10.70;;;4.00;;
78744;SDS011;68064;53.100;8.824;2023-05-15T04:45:50;18.38;;;7.80;;
78744;SDS011;68064;53.100;8.824;2023-05-15T04:46:51;18.33;;;8.98;;
78744;SDS011;68064;53.100;8.824;2023-05-15T04:47:54;13.20;;;5.68;;
78744;SDS011;68064;53.100;8.824;2023-05-15T04:48:55;15.05;;;7.07;;
78744;SDS011;68064;53.100;8.824;2023-05-15T04:49:56;17.13;;;7.57;;
78744;SDS011;68064;53.100;8.824;2023-05-15T04:50:57;17.95;;;9.45;;
78744;SDS011;68064;53.100;8.824;2023-05-15T04:51:58;23.55;;;10.73;;
78744;SDS011;68064;53.100;8.824;2023-05-15T04:52:59;23.85;;;11.68;;
78744;SDS011;68064;53.100;8.824;2023-05-15T04:54:00;24.85;;;10.73;;
78744;SDS011;68064;53.100;8.824;2023-05-15T04:55:01;24.95;;;12.13;;
78744;SDS011;68064;53.100;8.824;2023-05-15T04:56:03;22.23;;;11.27;;
78744;SDS011;68064;53.100;8.824;2023-05-15T04:57:04;24.75;;;12.10;;
78744;SDS011;68064;53.100;8.824;2023-05-15T04:58:05;22.95;;;10.93;;
78744;SDS011;68064;53.100;8.824;2023-05-15T04:59:06;25.58;;;12.38;;
78744;SDS011;68064;53.100;8.824;2023-05-15T05:00:08;22.75;;;11.10;;
78744;SDS011;68064;53.100;8.824;2023-05-15T05:01:10;26.30;;;13.15;;
78744;SDS011;68064;53.100;8.824;2023-05-15T05:02:11;17.75;;;9.00;;
78744;SDS011;68064;53.100;8.824;2023-05-15T05:03:13;24.05;;;11.00;;
78744;SDS011;68064;53.100;8.824;2023-05-15T05:04:14;29.33;;;14.05;;
78744;SDS011;68064;53.100;8.824;2023-05-15T05:05:15;27.75;;;13.77;;
78744;SDS011;68064;53.100;8.824;2023-05-15T05:06:16;21.13;;;9.80;;
78744;SDS011;68064;53.100;8.824;2023-05-15T05:07:17;16.38;;;7.18;;
78744;SDS011;68064;53.100;8.824;2023-05-15T05:08:18;22.27;;;10.75;;
78744;SDS011;68064;53.100;8.824;2023-05-15T05:09:19;24.00;;;12.05;;
78744;SDS011;68064;53.100;8.824;2023-05-15T05:10:20;26.25;;;12.77;;
78744;SDS011;68064;53.100;8.824;2023-05-15T05:11:22;19.65;;;8.32;;
78744;SDS011;68064;53.100;8.824;2023-05-15T05:12:23;18.30;;;8.52;;
78744;SDS011;68064;53.100;8.824;2023-05-15T05:13:24;29.27;;;14.88;;
78744;SDS011;68064;53.100;8.824;2023-05-15T05:14:25;31.52;;;14.60;;
78744;SDS011;68064;53.100;8.824;2023-05-15T05:15:26;31.15;;;16.48;;
78744;SDS011;68064;53.100;8.824;2023-05-15T05:16:27;23.23;;;10.68;;
78744;SDS011;68064;53.100;8.824;2023-05-15T05:17:28;31.88;;;14.50;;
78744;SDS011;68064;53.100;8.824;2023-05-15T05:19:32;26.98;;;13.63;;
78744;SDS011;68064;53.100;8.824;2023-05-15T05:20:33;31.60;;;16.02;;
78744;SDS011;68064;53.100;8.824;2023-05-15T05:21:34;24.75;;;11.63;;
78744;SDS011;68064;53.100;8.824;2023-05-15T05:23:36;31.60;;;14.45;;
78744;SDS011;68064;53.100;8.824;2023-05-15T05:24:37;32.72;;;15.77;;
78744;SDS011;68064;53.100;8.824;2023-05-15T05:25:38;18.05;;;8.77;;
78744;SDS011;68064;53.100;8.824;2023-05-15T05:26:39;29.08;;;14.75;;
78744;SDS011;68064;53.100;8.824;2023-05-15T05:27:43;32.95;;;16.83;;
78744;SDS011;68064;53.100;8.824;2023-05-15T05:28:44;32.97;;;15.88;;
78744;SDS011;68064;53.100;8.824;2023-05-15T05:29:45;35.05;;;17.67;;
78744;SDS011;68064;53.100;8.824;2023-05-15T05:30:46;35.83;;;17.08;;
78744;SDS011;68064;53.100;8.824;2023-05-15T05:31:48;32.63;;;17.48;;
78744;SDS011;68064;53.100;8.824;2023-05-15T05:33:51;31.83;;;16.00;;
78744;SDS011;68064;53.100;8.824;2023-05-15T05:34:52;33.30;;;16.52;;
78744;SDS011;68064;53.100;8.824;2023-05-15T05:35:53;34.28;;;16.48;;
78744;SDS011;68064;53.100;8.824;2023-05-15T05:36:54;29.90;;;13.55;;
78744;SDS011;68064;53.100;8.824;2023-05-15T05:37:55;34.95;;;15.88;;
78744;SDS011;68064;53.100;8.824;2023-05-15T05:38:56;29.75;;;15.00;;
78744;SDS011;68064;53.100;8.824;2023-05-15T05:40:58;31.90;;;14.77;;
78744;SDS011;68064;53.100;8.824;2023-05-15T05:41:59;33.42;;;16.05;;
78744;SDS011;68064;53.100;8.824;2023-05-15T05:43:00;35.17;;;17.10;;
78744;SDS011;68064;53.100;8.824;2023-05-15T05:44:01;32.35;;;15.77;;
78744;SDS011;68064;53.100;8.824;2023-05-15T05:46:04;32.97;;;15.73;;
78744;SDS011;68064;53.100;8.824;2023-05-15T05:47:05;36.50;;;17.50;;
78744;SDS011;68064;53.100;8.824;2023-05-15T05:48:06;31.85;;;16.48;;
78744;SDS011;68064;53.100;8.824;2023-05-15T05:49:08;34.53;;;16.95;;
78744;SDS011;68064;53.100;8.824;2023-05-15T05:50:09;36.70;;;19.15;;
78744;SDS011;68064;53.100;8.824;2023-05-15T05:51:11;32.33;;;17.35;;
78744;SDS011;68064;53.100;8.824;2023-05-15T05:52:12;35.95;;;17.35;;
78744;SDS011;68064;53.100;8.824;2023-05-15T05:53:13;35.63;;;18.42;;
78744;SDS011;68064;53.100;8.824;2023-05-15T05:54:14;36.30;;;17.83;;
78744;SDS011;68064;53.100;8.824;2023-05-15T05:55:15;32.28;;;17.83;;
78744;SDS011;68064;53.100;8.824;2023-05-15T05:56:16;35.30;;;17.92;;
78744;SDS011;68064;53.100;8.824;2023-05-15T05:58:18;35.05;;;16.75;;
78744;SDS011;68064;53.100;8.824;2023-05-15T05:59:20;33.20;;;17.02;;
78744;SDS011;68064;53.100;8.824;2023-05-15T06:00:21;34.65;;;17.83;;
78744;SDS011;68064;53.100;8.824;2023-05-15T06:01:22;32.50;;;17.20;;
78744;SDS011;68064;53.100;8.824;2023-05-15T06:02:23;32.50;;;17.25;;
78744;SDS011;68064;53.100;8.824;2023-05-15T06:03:24;36.00;;;17.85;;
78744;SDS011;68064;53.100;8.824;2023-05-15T06:04:27;32.50;;;16.77;;
78744;SDS011;68064;53.100;8.824;2023-05-15T06:05:28;36.70;;;17.25;;
78744;SDS011;68064;53.100;8.824;2023-05-15T06:06:29;30.85;;;14.73;;
78744;SDS011;68064;53.100;8.824;2023-05-15T06:07:30;37.40;;;17.73;;
78744;SDS011;68064;53.100;8.824;2023-05-15T06:09:32;31.85;;;15.85;;
78744;SDS011;68064;53.100;8.824;2023-05-15T06:10:33;32.50;;;15.98;;
78744;SDS011;68064;53.100;8.824;2023-05-15T06:11:34;30.77;;;15.80;;
78744;SDS011;68064;53.100;8.824;2023-05-15T06:12:35;32.13;;;17.50;;
78744;SDS011;68064;53.100;8.824;2023-05-15T06:13:36;33.67;;;16.90;;
78744;SDS011;68064;53.100;8.824;2023-05-15T06:14:37;27.55;;;14.65;;
78744;SDS011;68064;53.100;8.824;2023-05-15T06:15:38;28.67;;;14.15;;
78744;SDS011;68064;53.100;8.824;2023-05-15T06:16:39;27.25;;;14.75;;
78744;SDS011;68064;53.100;8.824;2023-05-15T06:17:40;31.17;;;16.30;;
78744;SDS011;68064;53.100;8.824;2023-05-15T06:18:41;29.05;;;15.60;;
78744;SDS011;68064;53.100;8.824;2023-05-15T06:19:44;27.92;;;13.73;;
78744;SDS011;68064;53.100;8.824;2023-05-15T06:20:45;31.20;;;14.30;;
78744;SDS011;68064;53.100;8.824;2023-05-15T06:21:46;34.20;;;16.02;;
78744;SDS011;68064;53.100;8.824;2023-05-15T06:22:47;34.67;;;17.85;;
78744;SDS011;68064;53.100;8.824;2023-05-15T06:23:48;33.60;;;16.63;;
78744;SDS011;68064;53.100;8.824;2023-05-15T06:25:50;35.53;;;17.48;;
78744;SDS011;68064;53.100;8.824;2023-05-15T06:26:51;31.40;;;15.40;;
78744;SDS011;68064;53.100;8.824;2023-05-15T06:27:52;33.83;;;15.82;;
78744;SDS011;68064;53.100;8.824;2023-05-15T06:28:53;27.58;;;15.90;;
78744;SDS011;68064;53.100;8.824;2023-05-15T06:29:54;29.35;;;14.93;;
78744;SDS011;68064;53.100;8.824;2023-05-15T06:30:55;30.70;;;14.98;;